Time;durP1;ratioP1;P1;durP2;ratioP2;P2;SDS_P1;SDS_P2;PMS_P1;PMS_P2;Temp;Humidity;BMP_temperature;BMP_pressure;BME280_temperature;BME280_humidity;BME280_pressure;Samples;Min_cycle;Max_cycle;Signal;HPM_P1;HPM_P2
2023/09/05 00:02:24;;;;;;;5.25;2.38;;;18.00;99.90;;;;;;5040488;28;20443;-62
2023/09/05 00:04:57;;;;;;;7.15;2.65;;;18.00;99.90;;;;;;5041389;28;20068;-62
2023/09/05 00:07:22;;;;;;;4.65;2.50;;;18.00;99.90;;;;;;5041101;28;20021;-62
2023/09/05 00:09:48;;;;;;;8.35;2.70;;;17.90;99.90;;;;;;5041038;28;20047;-64
2023/09/05 00:12:14;;;;;;;5.82;2.00;;;17.90;99.90;;;;;;5037627;28;20462;-64
2023/09/05 00:14:40;;;;;;;2.90;1.90;;;17.90;99.90;;;;;;5047652;28;20020;-63
2023/09/05 00:17:05;;;;;;;6.35;2.50;;;17.90;99.90;;;;;;5038425;28;20033;-63
2023/09/05 00:19:31;;;;;;;10.18;2.40;;;17.90;99.90;;;;;;5045175;28;20032;-62
2023/09/05 00:21:56;;;;;;;3.67;2.30;;;17.80;99.90;;;;;;5033807;28;20033;-63
2023/09/05 00:24:36;;;;;;;10.70;2.50;;;17.80;99.90;;;;;;5052137;28;20051;-63
2023/09/05 00:27:04;;;;;;;17.00;2.92;;;17.80;99.90;;;;;;5042680;28;20021;-62
2023/09/05 00:29:30;;;;;;;4.55;2.35;;;17.80;99.90;;;;;;5045422;28;20033;-61
2023/09/05 00:31:59;;;;;;;9.35;3.03;;;17.80;99.90;;;;;;5040593;28;20021;-62
2023/09/05 00:34:31;;;;;;;6.30;2.63;;;17.70;99.90;;;;;;5036430;28;20036;-62
2023/09/05 00:36:58;;;;;;;5.40;2.30;;;17.70;99.90;;;;;;5044732;28;20032;-62
2023/09/05 00:39:25;;;;;;;4.00;2.33;;;17.70;99.90;;;;;;5040411;28;20488;-62
2023/09/05 00:41:51;;;;;;;5.82;2.35;;;17.70;99.90;;;;;;5048615;28;20020;-62
2023/09/05 00:44:17;;;;;;;5.85;2.50;;;17.70;99.90;;;;;;5046596;28;20031;-62
2023/09/05 00:46:46;;;;;;;7.05;2.35;;;17.60;99.90;;;;;;5036393;28;20053;-61
2023/09/05 00:49:15;;;;;;;4.65;2.35;;;17.60;99.90;;;;;;5039959;28;20029;-62
2023/09/05 00:51:42;;;;;;;9.07;2.13;;;17.60;99.90;;;;;;5037941;28;20024;-62
2023/09/05 00:54:10;;;;;;;7.60;2.60;;;17.60;99.90;;;;;;5051228;28;20021;-62
2023/09/05 00:56:37;;;;;;;8.90;2.17;;;17.60;99.90;;;;;;5048621;28;20025;-62
2023/09/05 00:59:04;;;;;;;9.20;2.28;;;17.60;99.90;;;;;;5040213;28;20481;-61
2023/09/05 01:01:30;;;;;;;7.18;2.72;;;17.60;99.90;;;;;;5044356;28;20041;-62
2023/09/05 01:03:59;;;;;;;6.93;2.40;;;17.50;99.90;;;;;;5040626;28;20434;-61
2023/09/05 01:06:39;;;;;;;5.53;2.85;;;17.50;99.90;;;;;;5040046;28;20117;-62
2023/09/05 01:09:17;;;;;;;3.38;2.38;;;17.50;99.90;;;;;;5044083;28;20495;-61
2023/09/05 01:11:44;;;;;;;4.57;2.50;;;17.50;99.90;;;;;;5042232;28;20040;-62
2023/09/05 01:14:09;;;;;;;5.05;2.65;;;17.40;99.90;;;;;;5042388;28;20025;-61
2023/09/05 01:16:35;;;;;;;3.10;2.00;;;17.40;99.90;;;;;;5046233;28;20082;-62
2023/09/05 01:19:01;;;;;;;4.30;2.50;;;17.30;99.90;;;;;;5047130;28;20044;-61
2023/09/05 01:21:39;;;;;;;4.55;2.20;;;17.30;99.90;;;;;;5054459;28;20022;-61
2023/09/05 01:24:22;;;;;;;9.52;2.45;;;17.20;99.90;;;;;;5047117;28;20025;-62
2023/09/05 01:29:29;;;;;;;6.20;2.45;;;17.20;99.90;;;;;;5113161;22;20061;-61
2023/09/05 01:31:59;;;;;;;6.65;2.67;;;17.20;99.90;;;;;;4986638;28;20034;-63
2023/09/05 01:34:25;;;;;;;5.35;2.70;;;17.20;99.90;;;;;;4989695;28;20113;-63
2023/09/05 01:36:51;;;;;;;7.75;2.67;;;17.20;99.90;;;;;;4992862;28;20038;-62
2023/09/05 01:39:16;;;;;;;8.70;2.30;;;17.30;99.90;;;;;;4993065;28;20025;-64
2023/09/05 01:41:42;;;;;;;7.22;2.63;;;17.20;99.90;;;;;;4991390;28;20042;-61
2023/09/05 01:44:08;;;;;;;5.38;2.78;;;17.30;99.90;;;;;;4993846;28;20531;-62
2023/09/05 01:46:34;;;;;;;3.63;2.53;;;17.30;99.90;;;;;;4990294;28;20053;-61
2023/09/05 01:48:59;;;;;;;5.72;2.33;;;17.40;99.90;;;;;;4990748;28;20038;-63
2023/09/05 01:51:25;;;;;;;6.43;2.58;;;17.40;99.90;;;;;;4990363;28;20354;-63
2023/09/05 01:53:50;;;;;;;4.60;2.38;;;17.50;99.90;;;;;;4991186;28;20480;-62
2023/09/05 01:56:16;;;;;;;4.90;2.25;;;17.50;99.90;;;;;;4992707;28;20026;-62
2023/09/05 01:58:42;;;;;;;5.85;2.83;;;17.40;99.90;;;;;;4990314;28;20153;-63
2023/09/05 02:01:07;;;;;;;3.50;2.40;;;17.50;99.90;;;;;;4990370;28;20029;-63
2023/09/05 02:03:33;;;;;;;5.90;2.35;;;17.50;99.90;;;;;;4988624;28;20065;-63
2023/09/05 02:05:58;;;;;;;6.00;2.55;;;17.50;99.90;;;;;;4990548;28;20046;-63
2023/09/05 02:08:24;;;;;;;2.90;2.25;;;17.50;99.90;;;;;;4991807;28;20049;-63
2023/09/05 02:10:49;;;;;;;5.00;2.40;;;17.40;99.90;;;;;;4992121;28;20041;-62
2023/09/05 02:13:17;;;;;;;7.95;2.88;;;17.40;99.90;;;;;;4991900;28;20038;-62
2023/09/05 02:15:43;;;;;;;4.05;2.30;;;17.40;99.90;;;;;;4989661;28;20384;-63
2023/09/05 02:18:10;;;;;;;5.40;2.40;;;17.40;99.90;;;;;;4990780;28;20019;-61
2023/09/05 02:20:37;;;;;;;4.70;2.70;;;17.40;99.90;;;;;;4987863;28;20081;-63
2023/09/05 02:23:03;;;;;;;3.65;2.53;;;17.40;99.90;;;;;;4990318;28;20054;-61
2023/09/05 02:25:28;;;;;;;3.70;2.65;;;17.40;99.90;;;;;;4992806;28;20447;-63
2023/09/05 02:27:54;;;;;;;6.40;2.67;;;17.30;99.90;;;;;;4990913;28;20087;-63
2023/09/05 02:30:19;;;;;;;4.03;2.13;;;17.30;99.90;;;;;;4989078;28;20037;-60
2023/09/05 02:32:49;;;;;;;3.85;2.00;;;17.30;99.90;;;;;;4988783;28;20066;-63
2023/09/05 02:35:15;;;;;;;3.97;2.40;;;17.30;99.90;;;;;;4984689;28;20399;-63
2023/09/05 02:37:41;;;;;;;5.90;2.58;;;17.30;99.90;;;;;;4989925;28;20030;-63
2023/09/05 02:40:07;;;;;;;3.92;2.13;;;17.20;99.90;;;;;;4991216;28;20029;-63
2023/09/05 02:42:33;;;;;;;7.40;2.60;;;17.20;99.90;;;;;;4991206;28;20356;-63
2023/09/05 02:44:58;;;;;;;4.38;2.30;;;17.20;99.90;;;;;;4989856;28;20038;-63
2023/09/05 02:47:24;;;;;;;5.03;2.85;;;17.10;99.90;;;;;;4988170;28;20450;-63
2023/09/05 02:49:49;;;;;;;4.60;2.60;;;17.00;99.90;;;;;;4987315;28;20053;-55
2023/09/05 02:52:15;;;;;;;5.68;2.70;;;17.00;99.90;;;;;;4987843;28;20109;-63
2023/09/05 02:54:40;;;;;;;4.65;2.70;;;16.90;99.90;;;;;;4991180;28;20057;-63
2023/09/05 02:57:06;;;;;;;8.20;3.17;;;16.90;99.90;;;;;;4988307;28;20523;-63
2023/09/05 02:59:32;;;;;;;8.70;3.17;;;16.80;99.90;;;;;;4987320;28;20034;-62
2023/09/05 03:01:57;;;;;;;7.85;3.03;;;16.70;99.90;;;;;;4987468;28;20188;-63
2023/09/05 03:04:23;;;;;;;7.68;2.63;;;16.50;99.90;;;;;;4989209;28;20042;-62
2023/09/05 03:06:49;;;;;;;3.95;2.92;;;16.50;99.90;;;;;;4989322;28;20030;-63
2023/09/05 03:09:14;;;;;;;6.82;3.10;;;16.40;99.90;;;;;;4984952;28;20033;-63
2023/09/05 03:11:40;;;;;;;7.55;3.25;;;16.40;99.90;;;;;;4990556;28;20027;-60
2023/09/05 03:14:06;;;;;;;6.90;3.13;;;16.40;99.90;;;;;;4989605;28;20189;-63
2023/09/05 03:16:31;;;;;;;3.83;2.60;;;16.40;99.90;;;;;;4990196;28;20084;-62
2023/09/05 03:18:59;;;;;;;8.02;2.47;;;16.40;99.90;;;;;;4984868;28;20392;-63
2023/09/05 03:21:25;;;;;;;8.63;3.28;;;16.40;99.90;;;;;;4985002;28;20110;-63
2023/09/05 03:23:51;;;;;;;5.78;2.95;;;16.40;99.90;;;;;;4988818;28;20037;-62
2023/09/05 03:26:18;;;;;;;6.15;2.65;;;16.40;99.90;;;;;;4986970;28;20026;-62
2023/09/05 03:28:44;;;;;;;9.05;2.83;;;16.40;99.90;;;;;;4982231;28;20105;-63
2023/09/05 03:31:10;;;;;;;4.43;2.60;;;16.40;99.90;;;;;;4990307;28;20026;-62
2023/09/05 03:33:36;;;;;;;8.02;2.85;;;16.40;99.90;;;;;;4987299;28;20041;-64
2023/09/05 03:36:03;;;;;;;5.57;3.38;;;16.40;99.90;;;;;;4988282;28;20117;-63
2023/09/05 03:38:29;;;;;;;6.25;2.67;;;16.40;99.90;;;;;;4987914;28;20099;-63
2023/09/05 03:40:55;;;;;;;4.82;2.67;;;16.30;99.90;;;;;;4987008;28;20081;-63
2023/09/05 03:43:21;;;;;;;8.43;3.40;;;16.30;99.90;;;;;;4988794;28;20451;-63
2023/09/05 03:45:49;;;;;;;6.45;3.47;;;16.30;99.90;;;;;;4989757;28;20121;-62
2023/09/05 03:48:15;;;;;;;8.77;2.85;;;16.30;99.90;;;;;;4988657;28;20506;-62
2023/09/05 03:50:41;;;;;;;3.85;2.65;;;16.30;99.90;;;;;;4986049;28;20039;-62
2023/09/05 03:53:06;;;;;;;4.25;2.53;;;16.30;99.90;;;;;;4987570;28;20381;-62
2023/09/05 03:55:34;;;;;;;9.02;2.78;;;16.30;99.90;;;;;;4987927;28;20026;-63
2023/09/05 03:58:00;;;;;;;5.28;2.85;;;16.20;99.90;;;;;;4988685;28;20456;-63
2023/09/05 04:00:25;;;;;;;10.18;3.17;;;16.20;99.90;;;;;;4987469;28;20034;-62
2023/09/05 04:02:51;;;;;;;6.68;2.83;;;16.20;99.90;;;;;;4989145;28;20038;-63
2023/09/05 04:05:17;;;;;;;3.47;2.22;;;16.30;99.90;;;;;;4980674;28;20042;-64
2023/09/05 04:07:42;;;;;;;4.05;2.63;;;16.20;99.90;;;;;;4986356;28;20034;-61
2023/09/05 04:10:08;;;;;;;3.83;2.53;;;16.20;99.90;;;;;;4988904;28;20035;-63
2023/09/05 04:12:34;;;;;;;8.85;2.55;;;16.20;99.90;;;;;;4989642;28;20030;-60
2023/09/05 04:14:59;;;;;;;6.35;2.75;;;16.20;99.90;;;;;;4977796;28;20026;-62
2023/09/05 04:17:25;;;;;;;4.68;2.75;;;16.20;99.90;;;;;;4987129;28;20042;-63
2023/09/05 04:19:54;;;;;;;7.93;3.08;;;16.20;99.90;;;;;;4983225;28;20073;-62
2023/09/05 04:22:21;;;;;;;7.65;2.63;;;16.10;99.90;;;;;;4988846;28;20038;-63
2023/09/05 04:24:52;;;;;;;10.45;3.00;;;16.10;99.90;;;;;;4988110;28;20044;-60
2023/09/05 04:27:17;;;;;;;9.13;3.15;;;16.10;99.90;;;;;;4986500;28;20026;-62
2023/09/05 04:29:43;;;;;;;5.05;2.58;;;16.00;99.90;;;;;;4987676;28;20173;-62
2023/09/05 04:32:09;;;;;;;6.05;2.70;;;16.00;99.90;;;;;;4988863;28;20499;-63
2023/09/05 04:34:34;;;;;;;7.03;2.78;;;15.90;99.90;;;;;;4987414;28;20118;-62
2023/09/05 04:37:01;;;;;;;6.93;2.75;;;15.90;99.90;;;;;;4981692;28;20172;-63
2023/09/05 04:39:26;;;;;;;6.63;3.08;;;15.80;99.90;;;;;;4986329;28;20038;-62
2023/09/05 04:41:52;;;;;;;5.78;3.22;;;15.80;99.90;;;;;;4988322;28;20030;-63
2023/09/05 04:44:17;;;;;;;5.97;2.65;;;15.80;99.90;;;;;;4990038;28;20026;-63
2023/09/05 04:46:45;;;;;;;8.63;3.42;;;15.80;99.90;;;;;;4987972;28;20415;-61
2023/09/05 04:49:11;;;;;;;7.82;2.92;;;15.80;99.90;;;;;;4988107;28;20476;-61
2023/09/05 04:51:37;;;;;;;4.60;3.20;;;15.80;99.90;;;;;;4986944;28;20120;-60
2023/09/05 04:54:03;;;;;;;5.32;2.35;;;15.80;99.90;;;;;;4985617;28;20445;-59
2023/09/05 04:56:28;;;;;;;4.68;2.53;;;15.80;99.90;;;;;;4983014;28;20034;-55
2023/09/05 04:58:54;;;;;;;13.93;3.17;;;15.80;99.90;;;;;;4987481;28;20484;-60
2023/09/05 05:01:19;;;;;;;10.82;3.47;;;15.90;99.90;;;;;;4991756;28;20026;-59
2023/09/05 05:03:45;;;;;;;7.50;2.78;;;15.90;99.90;;;;;;4993218;28;20053;-60
2023/09/05 05:06:10;;;;;;;10.07;2.80;;;15.90;99.90;;;;;;4991590;28;20033;-60
2023/09/05 05:08:36;;;;;;;5.78;2.35;;;15.90;99.90;;;;;;4987153;28;20474;-61
2023/09/05 05:11:05;;;;;;;5.13;2.70;;;16.00;99.90;;;;;;4990093;28;20027;-59
2023/09/05 05:13:31;;;;;;;8.50;2.88;;;16.00;99.90;;;;;;4990823;28;20439;-62
2023/09/05 05:15:56;;;;;;;4.55;3.10;;;16.10;99.90;;;;;;4991997;28;20037;-62
2023/09/05 05:18:22;;;;;;;6.53;2.90;;;16.20;99.90;;;;;;4988009;28;20022;-61
2023/09/05 05:20:47;;;;;;;11.35;2.97;;;16.20;99.90;;;;;;4987410;28;20026;-60
2023/09/05 05:23:14;;;;;;;7.05;3.05;;;16.30;99.90;;;;;;4987095;28;20049;-61
2023/09/05 05:25:39;;;;;;;5.07;2.47;;;16.40;99.90;;;;;;4991785;28;20042;-60
2023/09/05 05:28:05;;;;;;;9.48;2.95;;;16.50;99.90;;;;;;4989328;28;20045;-59
2023/09/05 05:30:37;;;;;;;7.47;2.47;;;16.60;99.90;;;;;;4984724;28;20031;-61
2023/09/05 05:33:03;;;;;;;4.88;3.00;;;16.70;99.90;;;;;;4989808;28;20034;-60
2023/09/05 05:35:28;;;;;;;3.85;2.50;;;16.70;99.90;;;;;;4984360;28;20102;-60
2023/09/05 05:37:54;;;;;;;6.55;2.72;;;16.80;99.90;;;;;;4986715;28;20034;-62
2023/09/05 05:40:19;;;;;;;6.38;2.78;;;16.90;99.90;;;;;;4984381;28;20049;-60
2023/09/05 05:42:45;;;;;;;4.95;2.33;;;17.00;99.90;;;;;;4983766;28;20152;-61
2023/09/05 05:45:10;;;;;;;4.82;2.50;;;17.00;99.90;;;;;;4989400;28;20454;-62
2023/09/05 05:47:36;;;;;;;6.85;3.47;;;17.00;99.90;;;;;;4990277;28;20471;-61
2023/09/05 05:50:02;;;;;;;6.07;2.85;;;17.10;99.90;;;;;;4991727;28;20027;-60
2023/09/05 05:52:28;;;;;;;5.10;2.55;;;17.10;99.90;;;;;;4984301;28;20493;-60
2023/09/05 05:54:53;;;;;;;7.65;3.10;;;17.20;99.90;;;;;;4987876;28;20448;-63
2023/09/05 05:57:19;;;;;;;5.95;2.35;;;17.30;99.90;;;;;;4990033;28;20062;-62
2023/09/05 05:59:44;;;;;;;4.30;2.38;;;17.30;99.90;;;;;;4987353;28;20073;-62
2023/09/05 06:02:10;;;;;;;5.88;2.55;;;17.50;99.90;;;;;;4989375;28;20038;-61
2023/09/05 06:04:35;;;;;;;6.50;2.30;;;17.50;99.90;;;;;;4982899;28;20492;-61
2023/09/05 06:07:01;;;;;;;5.50;2.75;;;17.50;99.90;;;;;;4982563;28;20041;-60
2023/09/05 06:09:27;;;;;;;6.93;2.85;;;17.60;99.90;;;;;;4987380;28;20051;-62
2023/09/05 06:11:53;;;;;;;9.55;2.72;;;17.70;99.90;;;;;;4989273;28;20451;-62
2023/09/05 06:14:18;;;;;;;4.18;2.90;;;17.70;99.90;;;;;;4990935;28;20030;-59
2023/09/05 06:16:46;;;;;;;5.68;2.72;;;17.70;99.90;;;;;;4991453;28;20091;-60
2023/09/05 06:19:12;;;;;;;3.63;2.60;;;17.80;99.90;;;;;;4987974;28;20029;-59
2023/09/05 06:21:38;;;;;;;7.07;3.30;;;17.90;99.90;;;;;;4985071;28;20031;-60
2023/09/05 06:24:04;;;;;;;4.80;2.50;;;18.00;99.90;;;;;;4987254;28;20026;-59
2023/09/05 06:26:29;;;;;;;3.72;2.58;;;18.10;99.90;;;;;;4988214;28;20098;-61
2023/09/05 06:28:55;;;;;;;6.90;2.38;;;18.10;99.90;;;;;;4990557;28;20034;-61
2023/09/05 06:31:20;;;;;;;3.83;2.42;;;18.10;99.90;;;;;;4989779;28;20041;-61
2023/09/05 06:33:46;;;;;;;4.55;2.60;;;18.10;99.90;;;;;;4989383;28;20026;-61
2023/09/05 06:36:11;;;;;;;4.32;2.72;;;18.20;99.90;;;;;;4987553;28;20037;-62
2023/09/05 06:38:37;;;;;;;5.32;2.78;;;18.20;99.90;;;;;;4989516;28;20034;-61
2023/09/05 06:41:07;;;;;;;4.93;2.47;;;18.20;99.90;;;;;;4988066;28;20033;-62
2023/09/05 06:43:33;;;;;;;6.50;2.80;;;18.30;99.90;;;;;;4990712;28;20437;-61
2023/09/05 06:46:16;;;;;;;6.50;2.55;;;18.40;99.90;;;;;;4991208;28;20029;-62
2023/09/05 06:48:42;;;;;;;2.90;2.15;;;18.50;99.90;;;;;;4986382;28;20026;-62
2023/09/05 06:51:07;;;;;;;5.65;2.35;;;18.50;99.90;;;;;;4982601;28;20045;-62
2023/09/05 06:53:33;;;;;;;6.65;2.40;;;18.50;99.90;;;;;;4987149;28;20076;-61
2023/09/05 06:55:59;;;;;;;6.13;2.50;;;18.60;99.90;;;;;;4986018;28;20106;-62
2023/09/05 06:58:26;;;;;;;3.88;2.38;;;18.70;99.90;;;;;;4987206;28;20089;-61
2023/09/05 07:00:55;;;;;;;5.55;2.22;;;18.70;99.90;;;;;;4989119;28;20030;-61
2023/09/05 07:03:25;;;;;;;4.35;2.22;;;18.80;99.90;;;;;;4990887;28;20037;-62
2023/09/05 07:05:54;;;;;;;4.40;2.25;;;18.80;99.90;;;;;;4988076;28;20022;-60
2023/09/05 07:08:20;;;;;;;4.63;2.33;;;18.90;99.90;;;;;;4990255;28;20035;-60
2023/09/05 07:10:47;;;;;;;4.78;2.67;;;18.90;99.90;;;;;;4985798;28;20052;-63
2023/09/05 07:13:14;;;;;;;5.60;2.60;;;19.10;99.90;;;;;;4990789;28;20050;-65
2023/09/05 07:15:39;;;;;;;7.50;3.00;;;19.10;99.90;;;;;;4988029;28;20046;-62
2023/09/05 07:18:05;;;;;;;5.75;2.65;;;19.20;99.90;;;;;;4985604;28;20030;-62
2023/09/05 07:20:31;;;;;;;10.15;2.35;;;19.30;99.90;;;;;;4986376;28;20026;-61
2023/09/05 07:22:57;;;;;;;4.38;2.33;;;19.30;99.90;;;;;;4984952;28;20026;-63
2023/09/05 07:25:22;;;;;;;5.68;2.40;;;19.40;99.90;;;;;;4987920;28;20109;-62
2023/09/05 07:27:48;;;;;;;9.90;2.30;;;19.50;99.90;;;;;;4986798;28;20120;-62
2023/09/05 07:30:16;;;;;;;9.20;2.65;;;19.60;99.90;;;;;;4987100;28;20058;-62
2023/09/05 07:32:43;;;;;;;7.47;2.25;;;19.60;99.90;;;;;;4991476;28;20508;-62
2023/09/05 07:35:08;;;;;;;6.30;2.25;;;19.60;99.90;;;;;;4986766;28;20388;-62
2023/09/05 07:37:34;;;;;;;6.35;2.22;;;19.70;99.90;;;;;;4989435;28;20092;-62
2023/09/05 07:39:59;;;;;;;3.88;2.25;;;19.80;99.90;;;;;;4989494;28;21256;-63
2023/09/05 07:42:27;;;;;;;6.85;3.00;;;19.90;99.90;;;;;;4988803;28;20053;-63
2023/09/05 07:44:53;;;;;;;6.18;2.42;;;20.00;99.90;;;;;;4991316;28;20023;-62
2023/09/05 07:47:18;;;;;;;4.88;2.92;;;20.00;99.90;;;;;;4990688;28;20026;-62
2023/09/05 07:49:44;;;;;;;14.55;7.25;;;20.10;99.90;;;;;;4989037;28;20080;-61
2023/09/05 07:52:10;;;;;;;6.80;3.15;;;20.20;99.90;;;;;;4987550;28;20027;-62
2023/09/05 07:54:36;;;;;;;6.10;2.58;;;20.20;99.90;;;;;;4986624;28;20092;-63
2023/09/05 07:57:02;;;;;;;6.95;2.40;;;20.30;99.90;;;;;;4987033;28;20030;-62
2023/09/05 07:59:28;;;;;;;5.57;2.58;;;20.40;99.90;;;;;;4989243;28;20018;-62
2023/09/05 08:01:55;;;;;;;4.65;3.10;;;20.40;99.90;;;;;;4986826;28;20026;-62
2023/09/05 08:04:21;;;;;;;9.18;2.83;;;20.40;99.90;;;;;;4989230;28;20022;-62
2023/09/05 08:06:48;;;;;;;5.20;2.72;;;20.60;99.90;;;;;;4985803;28;20037;-63
2023/09/05 08:09:13;;;;;;;4.65;3.00;;;20.70;99.90;;;;;;4988627;28;20026;-63
2023/09/05 08:11:39;;;;;;;5.97;2.90;;;20.80;99.90;;;;;;4986049;28;20030;-63
2023/09/05 08:14:04;;;;;;;11.23;2.35;;;20.80;99.90;;;;;;4989907;28;20018;-61
2023/09/05 08:16:30;;;;;;;6.07;2.92;;;20.90;99.90;;;;;;4989397;28;20337;-63
2023/09/05 08:18:55;;;;;;;7.15;2.17;;;21.00;99.90;;;;;;4990155;28;20713;-63
2023/09/05 08:21:21;;;;;;;3.88;2.35;;;21.10;99.90;;;;;;4989102;28;20480;-63
2023/09/05 08:23:50;;;;;;;4.65;2.22;;;21.10;99.90;;;;;;4987707;28;20476;-63
2023/09/05 08:26:16;;;;;;;7.32;2.40;;;21.20;99.90;;;;;;4985576;28;20031;-63
2023/09/05 08:28:44;;;;;;;8.20;2.45;;;21.30;99.90;;;;;;4989245;28;20471;-63
2023/09/05 08:31:13;;;;;;;5.55;2.75;;;21.40;99.90;;;;;;4990660;28;20023;-62
2023/09/05 08:33:39;;;;;;;8.45;2.83;;;21.40;99.90;;;;;;4993830;28;20026;-63
2023/09/05 08:36:05;;;;;;;6.47;2.40;;;21.50;99.90;;;;;;4992960;28;20039;-62
2023/09/05 08:38:31;;;;;;;5.15;2.20;;;21.50;99.90;;;;;;4993989;28;20015;-62
2023/09/05 08:41:03;;;;;;;8.98;2.33;;;21.60;99.90;;;;;;4990116;28;20109;-62
2023/09/05 08:43:29;;;;;;;6.88;2.53;;;21.70;99.90;;;;;;4993146;28;20084;-62
2023/09/05 08:45:55;;;;;;;12.38;2.78;;;21.80;99.90;;;;;;4988883;28;20030;-63
2023/09/05 08:48:21;;;;;;;5.55;2.90;;;21.90;99.90;;;;;;4990114;28;20057;-63
2023/09/05 08:50:48;;;;;;;6.30;2.63;;;22.00;99.90;;;;;;4993758;28;20488;-63
2023/09/05 08:53:16;;;;;;;6.85;2.78;;;22.10;99.90;;;;;;4993519;28;20412;-61
2023/09/05 08:55:42;;;;;;;5.63;3.05;;;22.30;99.90;;;;;;4994594;28;20028;-62
2023/09/05 08:58:13;;;;;;;3.85;2.35;;;22.40;99.90;;;;;;4991476;28;20495;-63
2023/09/05 09:00:39;;;;;;;4.20;2.10;;;22.60;99.90;;;;;;4990878;28;20018;-62
2023/09/05 09:03:06;;;;;;;4.72;2.47;;;22.70;99.90;;;;;;4994276;28;20042;-63
2023/09/05 09:05:32;;;;;;;3.83;2.10;;;22.80;99.90;;;;;;4992378;28;20033;-62
2023/09/05 09:07:58;;;;;;;6.30;2.80;;;22.90;99.90;;;;;;4991556;28;20100;-62
2023/09/05 09:10:24;;;;;;;4.28;2.10;;;23.00;99.90;;;;;;4993948;28;20461;-63
2023/09/05 09:12:54;;;;;;;3.13;2.30;;;23.10;99.90;;;;;;4992275;28;20033;-63
2023/09/05 09:15:24;;;;;;;4.75;2.45;;;23.20;99.90;;;;;;4991650;28;20114;-63
2023/09/05 09:17:51;;;;;;;4.40;2.17;;;23.30;99.90;;;;;;4991755;28;20112;-63
2023/09/05 09:20:18;;;;;;;3.05;2.35;;;23.40;99.90;;;;;;4989636;28;20022;-63
2023/09/05 09:22:45;;;;;;;5.15;2.17;;;23.50;99.90;;;;;;4990120;28;20113;-63
2023/09/05 09:25:14;;;;;;;4.15;2.50;;;23.70;99.90;;;;;;4993892;28;20105;-63
2023/09/05 09:27:44;;;;;;;8.55;2.10;;;23.80;99.90;;;;;;4988917;28;20022;-63
2023/09/05 09:30:10;;;;;;;9.23;2.20;;;23.90;99.90;;;;;;4992019;28;20022;-63
2023/09/05 09:32:37;;;;;;;2.53;1.90;;;24.00;99.90;;;;;;4990738;28;20116;-63
2023/09/05 09:35:06;;;;;;;5.57;2.40;;;24.20;99.90;;;;;;4992218;28;20018;-64
2023/09/05 09:37:33;;;;;;;5.22;1.92;;;24.30;99.90;;;;;;4992255;28;20030;-63
2023/09/05 09:40:00;;;;;;;3.88;2.17;;;24.40;99.90;;;;;;4988175;28;20109;-63
2023/09/05 09:42:27;;;;;;;3.08;1.60;;;24.60;99.90;;;;;;4986208;28;20049;-64
2023/09/05 09:44:53;;;;;;;5.72;2.20;;;24.80;99.90;;;;;;4990491;28;20520;-63
2023/09/05 09:47:18;;;;;;;2.33;1.77;;;25.00;99.90;;;;;;4992234;28;20114;-63
2023/09/05 09:49:47;;;;;;;4.15;2.30;;;25.00;99.90;;;;;;4991600;28;20109;-63
2023/09/05 09:52:16;;;;;;;8.20;1.80;;;25.10;99.90;;;;;;4990640;28;20035;-60
2023/09/05 09:54:45;;;;;;;5.80;1.50;;;25.20;99.90;;;;;;4993277;28;20034;-63
2023/09/05 09:57:15;;;;;;;4.70;1.80;;;25.40;99.90;;;;;;4991571;28;20496;-62
2023/09/05 09:59:48;;;;;;;3.78;2.05;;;25.50;99.90;;;;;;4992246;28;20034;-63
2023/09/05 10:02:15;;;;;;;2.78;2.03;;;25.70;99.90;;;;;;4986616;28;20026;-60
2023/09/05 10:04:42;;;;;;;4.32;2.13;;;25.80;99.90;;;;;;4992473;28;20038;-63
2023/09/05 10:07:14;;;;;;;3.63;1.77;;;26.00;99.90;;;;;;4989398;28;20026;-63
2023/09/05 10:09:42;;;;;;;5.20;2.13;;;26.30;99.90;;;;;;4990655;28;20040;-63
2023/09/05 10:12:08;;;;;;;4.53;1.70;;;26.50;99.90;;;;;;4990230;28;20122;-63
2023/09/05 10:14:36;;;;;;;4.20;1.85;;;26.60;99.90;;;;;;4989883;28;20555;-63
2023/09/05 10:17:03;;;;;;;2.78;2.30;;;26.70;99.90;;;;;;4992002;28;20027;-63
2023/09/05 10:19:30;;;;;;;5.47;1.70;;;27.00;99.90;;;;;;4984728;28;20033;-62
2023/09/05 10:21:57;;;;;;;7.30;1.85;;;26.90;99.90;;;;;;4989648;28;20117;-61
2023/09/05 10:24:29;;;;;;;1.83;1.30;;;27.20;99.90;;;;;;4988374;28;20034;-64
2023/09/05 10:26:55;;;;;;;5.82;1.70;;;27.40;99.90;;;;;;4989495;28;20109;-63
2023/09/05 10:29:30;;;;;;;4.45;1.60;;;27.50;99.90;;;;;;4990499;28;20437;-62
2023/09/05 10:31:56;;;;;;;4.15;1.65;;;27.80;99.90;;;;;;4990819;28;20034;-62
2023/09/05 10:35:02;;;;;;;3.28;1.73;;;27.90;99.90;;;;;;4988668;28;20038;-62
2023/09/05 10:37:34;;;;;;;2.15;1.40;;;27.90;99.90;;;;;;4973609;28;20040;-61
2023/09/05 10:40:11;;;;;;;4.28;1.83;;;28.10;99.90;;;;;;4986915;28;20026;-62
2023/09/05 10:43:07;;;;;;;4.68;1.77;;;28.20;99.90;;;;;;4990406;28;20031;-63
2023/09/05 10:45:35;;;;;;;2.33;1.52;;;28.40;99.90;;;;;;4988487;28;20054;-64
2023/09/05 10:48:07;;;;;;;2.03;1.50;;;28.50;99.90;;;;;;4990045;28;20129;-64
2023/09/05 10:51:12;;;;;;;4.13;1.77;;;28.60;99.90;;;;;;4989895;28;20037;-64
2023/09/05 10:53:42;;;;;;;5.03;1.38;;;28.60;99.90;;;;;;4991831;28;20031;-64
2023/09/05 10:56:37;;;;;;;1.58;1.30;;;28.70;99.90;;;;;;4991548;28;20040;-62
2023/09/05 10:59:03;;;;;;;3.95;1.80;;;28.90;99.90;;;;;;4991088;28;20026;-60
2023/09/05 11:01:29;;;;;;;4.68;1.73;;;28.80;99.90;;;;;;4990519;28;20030;-62
2023/09/05 11:04:03;;;;;;;3.72;2.00;;;29.00;99.90;;;;;;4991623;28;20492;-62
2023/09/05 11:06:32;;;;;;;2.05;1.50;;;29.00;99.90;;;;;;4990521;28;20038;-62
2023/09/05 11:08:59;;;;;;;9.65;2.00;;;29.00;99.90;;;;;;4990388;28;20058;-62
2023/09/05 11:11:24;;;;;;;3.53;1.90;;;29.10;99.90;;;;;;4992104;28;20030;-62
2023/09/05 11:13:50;;;;;;;4.40;1.40;;;29.00;99.90;;;;;;4990536;28;20106;-62
2023/09/05 11:16:16;;;;;;;4.80;1.77;;;29.10;99.90;;;;;;4989815;28;20057;-63
2023/09/05 11:18:47;;;;;;;2.58;1.85;;;29.20;99.90;;;;;;4989475;28;20030;-62
2023/09/05 11:21:23;;;;;;;3.05;1.73;;;29.30;99.90;;;;;;4991587;28;20077;-62
2023/09/05 11:23:55;;;;;;;2.10;1.58;;;29.30;99.90;;;;;;4989350;28;20026;-62
2023/09/05 11:26:21;;;;;;;1.75;1.40;;;29.60;99.90;;;;;;4983704;28;20034;-62
2023/09/05 11:28:48;;;;;;;1.77;1.23;;;29.70;99.90;;;;;;4989560;28;20030;-63
2023/09/05 11:31:15;;;;;;;1.83;1.45;;;29.80;99.90;;;;;;4988108;28;20495;-63
2023/09/05 11:33:41;;;;;;;3.47;1.60;;;30.10;99.20;;;;;;4989821;28;20034;-63
2023/09/05 11:36:07;;;;;;;2.70;1.90;;;30.30;98.90;;;;;;4987944;28;20057;-63
2023/09/05 11:38:47;;;;;;;2.80;1.83;;;30.10;99.90;;;;;;4989000;28;20046;-62
2023/09/05 11:41:13;;;;;;;2.88;1.77;;;30.30;99.90;;;;;;4988352;28;20052;-63
2023/09/05 11:43:52;;;;;;;2.13;1.50;;;30.50;98.40;;;;;;4991536;28;20022;-63
2023/09/05 11:46:19;;;;;;;4.00;1.90;;;30.30;99.90;;;;;;4989830;28;20030;-63
2023/09/05 11:48:47;;;;;;;1.92;1.42;;;30.50;99.60;;;;;;4987419;28;20035;-63
2023/09/05 11:51:14;;;;;;;2.58;1.33;;;30.50;99.90;;;;;;4987486;28;20034;-63
2023/09/05 11:53:45;;;;;;;3.30;1.70;;;30.70;98.20;;;;;;4989109;28;20034;-63
2023/09/05 11:56:11;;;;;;;5.65;1.90;;;30.80;98.40;;;;;;4984521;28;20427;-63
2023/09/05 11:58:37;;;;;;;2.65;1.48;;;31.10;96.50;;;;;;4988148;28;20031;-63
2023/09/05 12:01:02;;;;;;;5.97;2.00;;;30.90;97.60;;;;;;4986513;28;20496;-62
2023/09/05 12:03:38;;;;;;;6.20;1.48;;;31.20;97.10;;;;;;4988390;28;20075;-63
2023/09/05 12:06:04;;;;;;;4.57;1.30;;;31.30;95.10;;;;;;4988571;28;20030;-63
2023/09/05 12:08:30;;;;;;;3.08;1.48;;;31.40;95.10;;;;;;4986657;28;20385;-62
2023/09/05 12:10:57;;;;;;;3.05;1.45;;;31.30;96.00;;;;;;4987377;28;20401;-62
2023/09/05 12:13:40;;;;;;;3.25;1.50;;;31.30;97.50;;;;;;4990174;28;20109;-60
2023/09/05 12:16:09;;;;;;;4.13;1.40;;;31.10;95.80;;;;;;4983937;28;20459;-62
2023/09/05 12:18:34;;;;;;;1.98;1.20;;;31.40;97.50;;;;;;4985448;28;20567;-62
2023/09/05 12:21:00;;;;;;;2.33;1.45;;;31.20;97.20;;;;;;4989221;28;20129;-62
2023/09/05 12:23:29;;;;;;;2.33;1.33;;;31.10;97.50;;;;;;4988331;28;20084;-63
2023/09/05 12:25:55;;;;;;;4.65;1.63;;;31.20;98.90;;;;;;4987952;28;20037;-63
2023/09/05 12:28:22;;;;;;;4.15;1.58;;;31.50;96.90;;;;;;4989898;28;20404;-60
2023/09/05 12:30:49;;;;;;;1.90;1.30;;;31.50;96.30;;;;;;4986386;28;20514;-62
2023/09/05 12:33:15;;;;;;;2.22;1.40;;;31.70;96.30;;;;;;4984254;28;20031;-63
2023/09/05 12:35:42;;;;;;;7.35;1.48;;;31.80;96.60;;;;;;4984591;28;20452;-63
2023/09/05 12:38:09;;;;;;;2.83;1.48;;;31.70;97.30;;;;;;4986821;28;20455;-63
2023/09/05 12:40:35;;;;;;;1.77;1.45;;;31.70;95.60;;;;;;4983114;28;20026;-63
2023/09/05 12:43:01;;;;;;;2.63;1.45;;;31.70;96.50;;;;;;4985354;28;20035;-63
2023/09/05 12:45:27;;;;;;;3.88;1.40;;;31.70;95.70;;;;;;4982968;28;20531;-63
2023/09/05 12:47:52;;;;;;;3.95;1.27;;;31.70;94.20;;;;;;4984101;28;20038;-63
2023/09/05 12:50:25;;;;;;;3.67;1.70;;;31.80;96.20;;;;;;4992152;28;20157;-62